Time;durP1;ratioP1;P1;durP2;ratioP2;P2;SDS_P1;SDS_P2;PMS_P1;PMS_P2;Temp;Humidity;BMP_temperature;BMP_pressure;BME280_temperature;BME280_humidity;BME280_pressure;Samples;Min_cycle;Max_cycle;Signal;HPM_P1;HPM_P2
2022/01/20 00:51:38;;;;;;;26.33;14.28;;;;;;;4.08;100.00;99174.98;714323;1174;115266;-73
2022/01/20 01:07:14;;;;;;;28.93;16.13;;;;;;;3.87;100.00;99146.36;713639;1174;115450;-73
2022/01/20 01:52:27;;;;;;;35.38;19.60;;;;;;;3.52;100.00;99079.91;713790;1174;114093;-75
2022/01/20 02:08:03;;;;;;;46.03;23.05;;;;;;;3.54;100.00;99033.92;713599;1174;115201;-74
2022/01/20 02:22:59;;;;;;;24.83;13.73;;;;;;;3.52;100.00;99018.48;713673;1173;113987;-74
2022/01/20 02:38:09;;;;;;;24.13;13.50;;;;;;;3.63;100.00;99010.70;713708;1173;114782;-76
2022/01/20 02:53:11;;;;;;;45.00;21.70;;;;;;;3.70;100.00;98982.50;713825;1174;115444;-74
2022/01/20 03:08:13;;;;;;;31.15;15.68;;;;;;;3.70;100.00;98953.16;713552;1173;115164;-74
2022/01/20 03:23:16;;;;;;;26.58;13.68;;;;;;;3.66;100.00;98932.63;713703;1174;115669;-75
2022/01/20 03:38:18;;;;;;;17.18;8.15;;;;;;;3.50;100.00;98927.05;713378;1177;115290;-75
2022/01/20 03:53:20;;;;;;;8.73;4.00;;;;;;;3.71;100.00;98939.21;713722;1174;114456;-75
2022/01/20 04:08:33;;;;;;;8.15;3.80;;;;;;;3.77;100.00;98929.16;713607;1173;115051;-75
2022/01/20 04:23:35;;;;;;;10.83;3.13;;;;;;;3.83;94.64;98928.67;713647;1173;114709;-74
2022/01/20 04:38:38;;;;;;;10.05;2.10;;;;;;;3.75;84.96;98927.64;713543;1174;115207;-74
2022/01/20 05:09:01;;;;;;;6.75;3.13;;;;;;;3.06;91.19;98929.64;713490;1174;114885;-74
2022/01/20 05:24:03;;;;;;;9.60;2.45;;;;;;;3.00;86.76;98924.92;713629;1174;114779;-74
2022/01/20 05:39:05;;;;;;;7.73;3.20;;;;;;;2.92;84.77;98917.75;713644;1174;114868;-75
2022/01/20 05:54:08;;;;;;;12.75;3.20;;;;;;;2.69;84.12;98906.57;713405;1174;115064;-74
2022/01/20 06:09:11;;;;;;;9.45;3.60;;;;;;;2.64;79.57;98922.47;713767;1174;115030;-75
2022/01/20 06:24:13;;;;;;;11.67;4.50;;;;;;;2.61;76.72;98919.29;713500;1174;114933;-75
2022/01/20 06:39:15;;;;;;;10.37;4.00;;;;;;;2.52;74.56;98904.46;713578;1174;114976;-74
2022/01/20 06:54:23;;;;;;;31.80;14.30;;;;;;;2.54;76.23;98908.58;713820;1174;115262;-74
2022/01/20 07:09:25;;;;;;;89.58;31.15;;;;;;;2.61;76.27;98914.11;713838;1174;113865;-73
2022/01/20 07:24:30;;;;;;;38.68;9.85;;;;;;;2.60;75.86;98899.51;713675;1174;115283;-74
2022/01/20 07:39:33;;;;;;;30.05;11.45;;;;;;;2.46;76.02;98916.93;713764;1174;115291;-75
2022/01/20 07:54:37;;;;;;;15.58;6.58;;;;;;;2.37;75.97;98912.45;714213;1174;115049;-74
2022/01/20 08:09:39;;;;;;;10.48;3.78;;;;;;;2.46;74.24;98919.52;714350;1174;113919;-75
2022/01/20 08:24:57;;;;;;;11.37;3.77;;;;;;;2.33;75.08;98922.20;714234;1174;115106;-76
2022/01/20 08:40:03;;;;;;;17.47;6.13;;;;;;;2.73;75.32;98901.98;714129;1174;114991;-73
2022/01/20 08:55:07;;;;;;;34.23;12.63;;;;;;;2.45;74.99;98889.39;714849;1174;114374;-73
2022/01/20 09:10:18;;;;;;;13.83;5.08;;;;;;;1.99;77.82;98898.05;714596;1174;115535;-75
2022/01/20 09:25:21;;;;;;;13.13;5.58;;;;;;;1.50;85.50;98938.66;714131;1174;114394;-74
2022/01/20 09:40:23;;;;;;;24.63;10.57;;;;;;;1.52;86.21;98952.31;714158;1174;115088;-75
2022/01/20 09:55:28;;;;;;;14.57;4.73;;;;;;;1.93;84.25;98956.23;714044;1174;115873;-74
2022/01/20 10:11:01;;;;;;;51.98;15.40;;;;;;;2.32;80.99;98950.80;714178;1174;115385;-74
2022/01/20 10:26:30;;;;;;;91.03;25.67;;;;;;;2.41;77.15;98957.87;714119;1174;115426;-75
2022/01/20 10:41:35;;;;;;;32.50;11.85;;;;;;;2.68;72.92;98966.25;714152;1174;114766;-73
2022/01/20 10:56:50;;;;;;;13.88;5.18;;;;;;;2.52;70.51;98957.08;714229;1174;115498;-74
2022/01/20 11:11:53;;;;;;;105.15;28.50;;;;;;;1.97;75.29;98991.28;713979;1174;115240;-75
2022/01/20 11:26:58;;;;;;;18.17;6.10;;;;;;;1.10;80.81;98962.98;714503;1172;118856;-74
2022/01/20 11:42:01;;;;;;;31.73;13.05;;;;;;;1.06;82.42;98958.97;714374;1174;115119;-73
2022/01/20 11:57:09;;;;;;;16.70;6.03;;;;;;;1.46;83.36;98956.14;714329;1174;115159;-74
2022/01/20 12:12:25;;;;;;;49.63;14.93;;;;;;;2.35;79.19;98944.56;714381;1174;114999;-74
2022/01/20 12:27:29;;;;;;;130.65;37.95;;;;;;;2.42;76.59;98956.13;715001;1174;115536;-74
2022/01/20 12:42:36;;;;;;;138.30;42.15;;;;;;;2.27;74.43;98961.51;714252;1174;115821;-74
2022/01/20 12:57:38;;;;;;;32.07;13.43;;;;;;;3.48;70.86;98971.25;714434;1174;115794;-78
2022/01/20 13:12:41;;;;;;;21.70;8.05;;;;;;;1.24;81.14;99055.05;714233;1174;115204;-74
2022/01/20 13:27:51;;;;;;;9.40;4.63;;;;;;;2.41;83.59;99058.82;713939;1174;115198;-74
2022/01/20 13:58:29;;;;;;;11.45;5.20;;;;;;;3.41;70.72;99089.34;713698;1174;115130;-72
2022/01/20 14:13:32;;;;;;;37.70;15.67;;;;;;;1.23;73.49;99080.97;714030;1174;113750;-77
2022/01/20 14:28:35;;;;;;;42.15;15.05;;;;;;;1.20;73.74;99099.27;714304;1174;115535;-77
2022/01/20 14:43:38;;;;;;;12.43;6.88;;;;;;;0.74;75.29;99116.92;714103;1174;115425;-77
2022/01/20 14:58:40;;;;;;;21.20;9.90;;;;;;;0.60;77.56;99140.23;714065;1174;115824;-77
2022/01/20 15:13:43;;;;;;;44.23;21.07;;;;;;;0.46;81.21;99180.67;713831;1174;115678;-75
2022/01/20 15:28:48;;;;;;;98.00;42.13;;;;;;;0.35;83.65;99177.92;713771;1174;115477;-77
2022/01/20 15:43:50;;;;;;;25.40;12.10;;;;;;;0.41;85.51;99212.83;714035;1174;115723;-76
2022/01/20 15:58:54;;;;;;;23.45;10.68;;;;;;;0.28;89.25;99239.41;714041;1174;115626;-77
2022/01/20 16:13:56;;;;;;;31.18;14.20;;;;;;;0.33;90.14;99246.88;714406;1174;115623;-76
2022/01/20 16:28:59;;;;;;;38.80;15.25;;;;;;;0.43;92.29;99276.33;713996;1174;115465;-75
2022/01/20 16:44:03;;;;;;;58.63;23.60;;;;;;;0.39;92.72;99277.44;713801;1174;115703;-78
2022/01/20 16:59:05;;;;;;;79.43;32.75;;;;;;;0.33;92.26;99309.62;713951;1173;113975;-74
2022/01/20 17:14:08;;;;;;;118.03;35.20;;;;;;;0.44;90.70;99332.18;713856;1174;114764;-77
2022/01/20 17:29:11;;;;;;;78.88;28.33;;;;;;;0.46;90.19;99353.58;713816;1174;115871;-77
2022/01/20 17:44:13;;;;;;;69.43;24.75;;;;;;;0.56;92.00;99374.48;713917;1174;115522;-76
2022/01/20 17:59:19;;;;;;;33.47;14.07;;;;;;;0.55;92.27;99387.48;714187;1174;115800;-75
2022/01/20 18:14:22;;;;;;;30.67;9.53;;;;;;;0.51;91.44;99388.59;714539;1174;114978;-75
2022/01/20 18:29:26;;;;;;;20.20;7.10;;;;;;;0.67;89.17;99404.80;714300;1174;115591;-75
2022/01/20 18:44:28;;;;;;;43.85;13.20;;;;;;;0.61;87.95;99405.19;714485;1174;115589;-75
2022/01/20 18:59:32;;;;;;;30.40;14.08;;;;;;;0.67;86.79;99420.28;713927;1174;115535;-76
2022/01/20 19:14:35;;;;;;;17.50;8.60;;;;;;;0.85;85.20;99427.86;714164;1173;115653;-75
2022/01/20 19:29:40;;;;;;;13.85;5.98;;;;;;;0.98;82.15;99447.66;714264;1174;114065;-75
2022/01/20 19:44:44;;;;;;;16.38;6.70;;;;;;;1.14;81.56;99460.45;714289;1174;114596;-78
2022/01/20 19:59:47;;;;;;;14.83;5.00;;;;;;;1.09;80.33;99472.00;714656;1174;115775;-75
2022/01/20 20:14:49;;;;;;;69.18;26.65;;;;;;;1.06;79.06;99488.52;714350;1174;115290;-75
2022/01/20 20:29:52;;;;;;;11.55;4.85;;;;;;;1.14;74.53;99506.95;714526;1174;115644;-74
2022/01/20 20:44:57;;;;;;;7.85;3.50;;;;;;;1.23;71.36;99528.83;714584;1174;115273;-78
2022/01/20 20:59:59;;;;;;;10.33;4.43;;;;;;;1.14;69.93;99553.46;714461;1174;115461;-78
2022/01/20 21:15:03;;;;;;;10.80;4.95;;;;;;;1.07;69.25;99574.59;714463;1174;115325;-76
2022/01/20 21:30:08;;;;;;;56.60;17.50;;;;;;;1.04;68.90;99587.70;714702;1174;113972;-76
2022/01/20 21:45:11;;;;;;;101.60;28.48;;;;;;;1.01;67.83;99604.20;715834;1174;115453;-76
2022/01/20 22:00:14;;;;;;;168.95;46.15;;;;;;;0.92;67.10;99602.98;715359;1174;115682;-77
2022/01/20 22:15:17;;;;;;;277.20;65.60;;;;;;;0.96;66.39;99616.56;715057;1174;115759;-76
2022/01/20 22:30:19;;;;;;;57.78;18.00;;;;;;;0.96;66.00;99647.55;715201;1174;115067;-75
2022/01/20 22:45:21;;;;;;;149.93;38.03;;;;;;;1.08;65.16;99653.76;715357;1167;115625;-76
2022/01/20 23:00:29;;;;;;;100.68;27.10;;;;;;;1.03;65.35;99669.55;715041;1172;114615;-76
2022/01/20 23:15:34;;;;;;;30.75;10.15;;;;;;;0.98;65.26;99682.71;715133;1174;115913;-75
2022/01/20 23:30:38;;;;;;;23.40;6.93;;;;;;;1.04;65.10;99681.52;714710;1174;115725;-76
2022/01/20 23:48:07;;;;;;;16.15;4.60;;;;;;;0.97;64.55;99687.97;714866;1174;115201;-76
